createdAt,value
2017-08-13T00:00:05.240Z,16.80
2017-08-13T00:02:33.481Z,16.80
2017-08-13T00:05:02.526Z,16.80
2017-08-13T00:07:30.797Z,16.80
2017-08-13T00:09:59.044Z,16.90
2017-08-13T00:12:27.334Z,16.80
2017-08-13T00:14:55.558Z,16.80
2017-08-13T00:17:23.892Z,16.70
2017-08-13T00:20:02.854Z,16.80
2017-08-13T00:22:32.050Z,16.70
2017-08-13T00:25:00.290Z,16.60
2017-08-13T00:27:29.414Z,16.50
2017-08-13T00:29:57.659Z,16.50
2017-08-13T00:32:25.952Z,16.70
2017-08-13T00:34:54.182Z,16.70
2017-08-13T00:37:23.209Z,16.60
2017-08-13T00:39:51.457Z,16.60
2017-08-13T00:42:19.739Z,16.60
2017-08-13T00:44:48.776Z,16.50
2017-08-13T00:47:17.044Z,16.50
2017-08-13T00:49:45.278Z,16.50
2017-08-13T00:52:14.438Z,16.60
2017-08-13T00:54:42.730Z,16.60
2017-08-13T00:57:11.283Z,16.60
2017-08-13T00:59:40.251Z,16.60
2017-08-13T01:02:08.688Z,16.60
2017-08-13T01:04:36.918Z,16.60
2017-08-13T01:07:05.182Z,16.60
2017-08-13T01:09:34.197Z,16.60
2017-08-13T01:12:02.453Z,16.60
2017-08-13T01:14:32.410Z,16.50
2017-08-13T01:17:00.666Z,16.50
2017-08-13T01:19:29.834Z,16.40
2017-08-13T01:21:58.875Z,16.30
2017-08-13T01:24:28.191Z,16.30
2017-08-13T01:26:57.275Z,16.30
2017-08-13T01:29:25.784Z,16.40
2017-08-13T01:31:54.057Z,16.40
2017-08-13T01:34:22.300Z,16.50
2017-08-13T01:36:50.562Z,16.50
2017-08-13T01:39:20.445Z,16.30
2017-08-13T01:41:48.710Z,16.30
2017-08-13T01:44:16.959Z,16.40
2017-08-13T01:46:45.242Z,16.50
2017-08-13T01:49:13.496Z,16.50
2017-08-13T01:51:42.210Z,16.40
2017-08-13T01:54:10.484Z,16.40
2017-08-13T01:56:38.734Z,16.40
2017-08-13T01:59:07.005Z,16.50
2017-08-13T02:01:35.766Z,16.40
2017-08-13T02:04:04.783Z,16.40
2017-08-13T02:06:33.781Z,16.40
2017-08-13T02:09:02.051Z,16.40
2017-08-13T02:11:31.063Z,16.50
2017-08-13T02:13:59.305Z,16.50
2017-08-13T02:16:28.315Z,16.50
2017-08-13T02:18:57.350Z,16.60
2017-08-13T02:21:25.621Z,16.60
2017-08-13T02:23:54.298Z,16.70
2017-08-13T02:26:22.553Z,16.60
2017-08-13T02:28:51.701Z,16.60
2017-08-13T02:31:19.934Z,16.70
2017-08-13T02:33:48.195Z,16.70
2017-08-13T02:36:16.430Z,16.80
2017-08-13T02:38:45.732Z,16.80
2017-08-13T02:41:13.988Z,16.80
2017-08-13T02:43:42.267Z,16.80
2017-08-13T02:46:10.559Z,16.70
2017-08-13T02:48:38.836Z,16.70
2017-08-13T02:51:07.058Z,16.60
2017-08-13T02:53:36.066Z,16.50
2017-08-13T02:56:04.349Z,16.50
2017-08-13T02:58:33.426Z,16.50
2017-08-13T03:01:02.456Z,16.50
2017-08-13T03:03:30.716Z,16.40
2017-08-13T03:05:58.985Z,16.50
2017-08-13T03:08:28.011Z,16.50
2017-08-13T03:10:56.268Z,16.40
2017-08-13T03:13:24.530Z,16.50
2017-08-13T03:15:53.529Z,16.60
2017-08-13T03:18:21.786Z,16.60
2017-08-13T03:20:50.824Z,16.70
2017-08-13T03:23:19.103Z,16.60
2017-08-13T03:25:47.369Z,16.60
2017-08-13T03:28:15.624Z,16.60
2017-08-13T03:30:44.642Z,16.60
2017-08-13T03:33:13.092Z,16.60
2017-08-13T03:35:42.130Z,16.60
2017-08-13T03:38:10.511Z,16.60
2017-08-13T03:40:38.745Z,16.70
2017-08-13T03:43:07.765Z,16.70
2017-08-13T03:45:36.031Z,16.70
2017-08-13T03:48:05.081Z,16.60
2017-08-13T03:50:33.345Z,16.60
2017-08-13T03:53:01.613Z,16.50
2017-08-13T03:55:29.877Z,16.50
2017-08-13T03:57:58.106Z,16.40
2017-08-13T04:00:27.108Z,16.40
2017-08-13T04:02:55.443Z,16.30
2017-08-13T04:05:24.702Z,16.20
2017-08-13T04:07:53.703Z,16.10
2017-08-13T04:10:22.758Z,16.10
2017-08-13T04:12:51.026Z,16.10
2017-08-13T04:15:19.291Z,16.00
2017-08-13T04:17:47.687Z,16.00
2017-08-13T04:20:15.932Z,16.00
2017-08-13T04:22:44.209Z,16.00
2017-08-13T04:25:12.772Z,16.10
2017-08-13T04:27:41.750Z,16.30
2017-08-13T04:30:10.784Z,16.30
2017-08-13T04:32:39.026Z,16.30
2017-08-13T04:35:08.069Z,16.50
2017-08-13T04:37:36.317Z,16.50
2017-08-13T04:40:04.570Z,16.50
2017-08-13T04:42:32.814Z,16.60
2017-08-13T04:45:01.090Z,16.60
2017-08-13T04:47:29.854Z,16.70
2017-08-13T04:49:59.668Z,16.70
2017-08-13T04:52:27.912Z,16.70
2017-08-13T04:54:56.908Z,16.60
2017-08-13T04:57:25.174Z,16.60
2017-08-13T04:59:54.204Z,16.60
2017-08-13T05:02:22.449Z,16.60
2017-08-13T05:04:51.494Z,16.60
2017-08-13T05:07:19.735Z,16.60
2017-08-13T05:09:48.864Z,16.50
2017-08-13T05:12:17.090Z,16.50
2017-08-13T05:14:46.709Z,16.50
2017-08-13T05:17:14.966Z,16.50
2017-08-13T05:19:43.214Z,16.50
2017-08-13T05:22:11.461Z,16.50
2017-08-13T05:24:39.717Z,16.40
2017-08-13T05:27:08.009Z,16.40
2017-08-13T05:29:37.029Z,16.70
2017-08-13T05:32:05.270Z,16.70
2017-08-13T05:34:34.294Z,17.00
2017-08-13T05:37:02.542Z,17.00
2017-08-13T05:39:30.816Z,17.10
2017-08-13T05:41:59.082Z,17.20
2017-08-13T05:44:27.325Z,17.20
2017-08-13T05:46:55.588Z,17.30
2017-08-13T05:49:23.830Z,17.30
2017-08-13T05:51:52.235Z,17.20
2017-08-13T05:54:20.499Z,17.40
2017-08-13T05:56:48.763Z,17.30
2017-08-13T05:59:17.758Z,17.20
2017-08-13T06:01:46.046Z,17.20
2017-08-13T06:04:14.298Z,17.20
2017-08-13T06:06:43.306Z,17.30
2017-08-13T06:09:11.563Z,17.30
2017-08-13T06:11:40.566Z,17.10
2017-08-13T06:14:09.615Z,17.10
2017-08-13T06:16:37.873Z,17.00
2017-08-13T06:19:06.707Z,17.00
2017-08-13T06:21:34.972Z,17.10
2017-08-13T06:24:03.225Z,17.20
2017-08-13T06:26:31.487Z,17.30
2017-08-13T06:28:59.753Z,17.30
2017-08-13T06:31:28.298Z,17.50
2017-08-13T06:33:56.571Z,17.60
2017-08-13T06:36:24.849Z,17.60
2017-08-13T06:38:53.103Z,17.70
2017-08-13T06:41:21.355Z,17.70
2017-08-13T06:43:49.658Z,17.70
2017-08-13T06:46:17.915Z,17.80
2017-08-13T06:48:46.401Z,17.70
2017-08-13T06:51:14.679Z,18.00
2017-08-13T06:53:42.923Z,18.20
2017-08-13T06:56:11.954Z,18.50
2017-08-13T06:58:40.210Z,18.50
2017-08-13T07:01:08.466Z,18.50
2017-08-13T07:03:37.491Z,18.70
2017-08-13T07:06:05.762Z,18.70
2017-08-13T07:08:34.002Z,18.90
2017-08-13T07:11:03.037Z,19.20
2017-08-13T07:13:31.289Z,19.20
2017-08-13T07:16:00.350Z,18.60
2017-08-13T07:18:28.599Z,18.60
2017-08-13T07:20:57.048Z,18.70
2017-08-13T07:23:26.059Z,19.20
2017-08-13T07:25:54.330Z,19.20
2017-08-13T07:28:22.590Z,19.50
2017-08-13T07:30:51.853Z,19.70
2017-08-13T07:33:20.110Z,19.70
2017-08-13T07:35:48.351Z,19.70
2017-08-13T07:38:17.388Z,19.80
2017-08-13T07:40:45.631Z,19.70
2017-08-13T07:43:14.241Z,19.60
2017-08-13T07:45:42.482Z,19.30
2017-08-13T07:48:11.499Z,19.30
2017-08-13T07:50:39.817Z,19.30
2017-08-13T07:53:08.049Z,19.40
2017-08-13T07:55:36.303Z,19.50
2017-08-13T07:58:05.346Z,19.10
2017-08-13T08:00:33.591Z,19.00
2017-08-13T08:03:01.877Z,19.10
2017-08-13T08:05:30.281Z,19.10
2017-08-13T08:07:58.547Z,19.00
2017-08-13T08:10:26.871Z,18.90
2017-08-13T08:12:55.098Z,18.90
2017-08-13T08:15:23.363Z,18.90
2017-08-13T08:17:51.631Z,18.70
2017-08-13T08:20:19.887Z,18.80
2017-08-13T08:22:48.920Z,18.70
2017-08-13T08:25:17.196Z,18.70
2017-08-13T08:27:45.813Z,18.80
2017-08-13T08:30:14.065Z,18.90
2017-08-13T08:32:42.336Z,19.00
2017-08-13T08:35:10.577Z,19.00
2017-08-13T08:37:39.600Z,19.50
2017-08-13T08:40:07.916Z,19.50
2017-08-13T08:42:36.213Z,19.60
2017-08-13T08:45:04.499Z,19.70
2017-08-13T08:47:32.753Z,19.50
2017-08-13T08:50:01.206Z,19.50
2017-08-13T08:52:29.467Z,19.80
2017-08-13T08:54:57.735Z,20.00
2017-08-13T08:57:25.998Z,19.90
2017-08-13T08:59:55.049Z,19.90
2017-08-13T09:02:23.333Z,19.90
2017-08-13T09:04:51.638Z,19.60
2017-08-13T09:07:19.882Z,19.40
2017-08-13T09:09:48.313Z,19.40
2017-08-13T09:12:16.539Z,19.50
2017-08-13T09:14:44.793Z,19.80
2017-08-13T09:17:13.197Z,20.00
2017-08-13T09:19:41.479Z,19.60
2017-08-13T09:22:09.801Z,19.40
2017-08-13T09:24:38.854Z,20.00
2017-08-13T09:27:07.076Z,20.00
2017-08-13T09:29:36.137Z,20.50
2017-08-13T09:32:04.486Z,20.50
2017-08-13T09:34:32.722Z,20.40
2017-08-13T09:37:01.786Z,19.90
2017-08-13T09:39:30.054Z,19.90
2017-08-13T09:41:58.300Z,20.10
2017-08-13T09:44:26.601Z,20.10
2017-08-13T09:46:54.877Z,20.10
2017-08-13T09:49:23.157Z,19.90
2017-08-13T09:51:51.415Z,19.70
2017-08-13T09:54:19.686Z,19.80
2017-08-13T09:56:48.710Z,20.10
2017-08-13T09:59:17.078Z,20.10
2017-08-13T10:01:45.316Z,20.00
2017-08-13T10:04:14.336Z,20.40
2017-08-13T10:06:42.593Z,20.30
2017-08-13T10:09:10.868Z,20.50
2017-08-13T10:11:39.149Z,20.50
2017-08-13T10:14:08.165Z,20.50
2017-08-13T10:16:36.415Z,20.50
2017-08-13T10:19:05.442Z,21.10
2017-08-13T10:21:33.745Z,21.10
2017-08-13T10:24:01.961Z,20.80
2017-08-13T10:26:31.696Z,20.40
2017-08-13T10:29:01.306Z,20.30
2017-08-13T10:31:29.736Z,20.30
2017-08-13T10:33:58.026Z,20.30
2017-08-13T10:36:26.278Z,20.20
2017-08-13T10:38:54.509Z,20.30
2017-08-13T10:41:22.779Z,20.20
2017-08-13T10:43:51.052Z,20.30
2017-08-13T10:46:19.319Z,20.40
2017-08-13T10:48:48.569Z,21.00
2017-08-13T10:51:17.650Z,21.00
2017-08-13T10:53:45.902Z,21.10
2017-08-13T10:56:15.784Z,20.80
2017-08-13T10:58:44.053Z,20.80
2017-08-13T11:01:12.329Z,20.80
2017-08-13T11:03:40.538Z,20.90
2017-08-13T11:06:09.580Z,20.90
2017-08-13T11:08:37.856Z,20.90
2017-08-13T11:11:06.116Z,21.10
2017-08-13T11:13:34.389Z,21.20
2017-08-13T11:16:02.624Z,21.10
2017-08-13T11:18:30.882Z,21.30
2017-08-13T11:20:59.136Z,21.50
2017-08-13T11:23:27.542Z,21.70
2017-08-13T11:25:55.802Z,21.70
2017-08-13T11:28:24.070Z,21.70
2017-08-13T11:30:52.341Z,21.30
2017-08-13T11:33:20.601Z,21.40
2017-08-13T11:35:48.829Z,21.60
2017-08-13T11:38:17.091Z,21.80
2017-08-13T11:40:45.324Z,21.90
2017-08-13T11:43:13.585Z,22.00
2017-08-13T11:45:41.870Z,21.70
2017-08-13T11:48:10.861Z,21.50
2017-08-13T11:50:39.922Z,21.40
2017-08-13T11:53:08.226Z,21.40
2017-08-13T11:55:36.486Z,21.30
2017-08-13T11:58:04.760Z,21.30
2017-08-13T12:00:33.003Z,21.50
2017-08-13T12:03:01.307Z,21.80
2017-08-13T12:05:29.594Z,21.90
2017-08-13T12:07:57.826Z,22.10
2017-08-13T12:10:26.826Z,22.20
2017-08-13T12:12:55.125Z,22.10
2017-08-13T12:15:23.399Z,22.00
2017-08-13T12:17:51.657Z,22.20
2017-08-13T12:20:19.890Z,22.10
2017-08-13T12:22:48.133Z,21.80
2017-08-13T12:25:16.392Z,21.80
2017-08-13T12:27:44.659Z,21.70
2017-08-13T12:30:12.925Z,21.70
2017-08-13T12:32:41.202Z,21.60
2017-08-13T12:35:10.198Z,21.80
2017-08-13T12:37:38.447Z,21.80
2017-08-13T12:40:07.500Z,21.70
2017-08-13T12:42:35.773Z,21.70
2017-08-13T12:45:04.026Z,21.70
2017-08-13T12:47:32.277Z,21.40
2017-08-13T12:50:00.547Z,21.60
2017-08-13T12:52:28.879Z,21.60
2017-08-13T12:54:57.124Z,21.80
2017-08-13T12:57:26.157Z,22.20
2017-08-13T12:59:54.416Z,22.20
2017-08-13T13:02:22.730Z,22.30
2017-08-13T13:04:50.976Z,22.60
2017-08-13T13:07:19.471Z,22.60
2017-08-13T13:09:48.638Z,22.90
2017-08-13T13:12:17.650Z,23.30
2017-08-13T13:14:47.486Z,23.40
2017-08-13T13:17:15.765Z,23.40
2017-08-13T13:19:44.029Z,23.40
2017-08-13T13:22:12.275Z,23.40
2017-08-13T13:24:40.585Z,23.40
2017-08-13T13:27:09.309Z,23.00
2017-08-13T13:29:37.640Z,22.80
2017-08-13T13:32:06.687Z,22.40
2017-08-13T13:34:34.937Z,22.40
2017-08-13T13:37:03.214Z,22.40
2017-08-13T13:39:31.459Z,22.40
2017-08-13T13:42:00.049Z,22.50
2017-08-13T13:44:29.052Z,22.30
2017-08-13T13:46:57.298Z,22.30
2017-08-13T13:49:25.543Z,22.20
2017-08-13T13:51:53.814Z,22.20
2017-08-13T13:54:22.091Z,21.90
2017-08-13T13:56:50.365Z,21.90
2017-08-13T13:59:18.621Z,21.80
2017-08-13T14:01:46.918Z,21.80
2017-08-13T14:04:15.175Z,21.80
2017-08-13T14:06:43.426Z,21.60
2017-08-13T14:09:11.673Z,21.60
2017-08-13T14:11:40.846Z,21.30
2017-08-13T14:14:09.073Z,21.30
2017-08-13T14:16:37.379Z,21.20
2017-08-13T14:19:05.997Z,21.50
2017-08-13T14:21:34.273Z,21.50
2017-08-13T14:24:02.533Z,21.60
2017-08-13T14:26:30.818Z,21.70
2017-08-13T14:28:59.096Z,21.80
2017-08-13T14:31:27.355Z,21.90
2017-08-13T14:33:55.641Z,21.80
2017-08-13T14:36:23.932Z,21.80
2017-08-13T14:38:52.225Z,21.60
2017-08-13T14:41:20.553Z,21.70
2017-08-13T14:43:48.818Z,21.70
2017-08-13T14:46:17.094Z,21.70
2017-08-13T14:48:45.358Z,21.60
2017-08-13T14:51:13.780Z,21.70
2017-08-13T14:53:42.106Z,21.80
2017-08-13T14:56:11.220Z,22.30
2017-08-13T14:58:39.478Z,22.20
2017-08-13T15:01:08.512Z,22.40
2017-08-13T15:03:36.825Z,22.40
2017-08-13T15:06:05.894Z,22.60
2017-08-13T15:08:34.163Z,22.60
2017-08-13T15:11:02.411Z,22.80
2017-08-13T15:13:30.698Z,22.90
2017-08-13T15:15:58.953Z,22.80
2017-08-13T15:18:28.046Z,22.80
2017-08-13T15:20:57.068Z,22.70
2017-08-13T15:23:25.335Z,22.60
2017-08-13T15:25:53.629Z,22.80
2017-08-13T15:28:21.902Z,22.80
2017-08-13T15:30:50.919Z,22.70
2017-08-13T15:33:19.541Z,22.60
2017-08-13T15:35:47.791Z,22.60
2017-08-13T15:38:16.902Z,22.40
2017-08-13T15:40:45.174Z,22.60
2017-08-13T15:43:13.452Z,22.50
2017-08-13T15:45:41.687Z,22.60
2017-08-13T15:48:09.979Z,22.70
2017-08-13T15:50:38.297Z,22.80
2017-08-13T15:53:06.561Z,22.70
2017-08-13T15:55:34.839Z,22.80
2017-08-13T15:58:03.115Z,22.80
2017-08-13T16:00:31.389Z,22.80
2017-08-13T16:02:59.915Z,22.90
2017-08-13T16:05:28.257Z,23.00
2017-08-13T16:07:56.570Z,22.90
2017-08-13T16:10:24.836Z,22.70
2017-08-13T16:12:53.096Z,22.60
2017-08-13T16:15:21.371Z,22.50
2017-08-13T16:17:49.647Z,22.80
2017-08-13T16:20:18.786Z,23.10
2017-08-13T16:22:47.779Z,23.00
2017-08-13T16:25:16.868Z,22.90
2017-08-13T16:27:45.237Z,22.90
2017-08-13T16:30:13.491Z,22.70
2017-08-13T16:32:41.769Z,22.80
2017-08-13T16:35:10.392Z,22.70
2017-08-13T16:37:39.415Z,22.70
2017-08-13T16:40:07.688Z,22.70
2017-08-13T16:42:35.946Z,22.40
2017-08-13T16:45:04.231Z,22.20
2017-08-13T16:47:32.490Z,22.20
2017-08-13T16:50:01.536Z,22.10
2017-08-13T16:52:29.816Z,22.10
2017-08-13T16:54:58.178Z,22.10
2017-08-13T16:57:26.422Z,22.00
2017-08-13T16:59:55.460Z,22.00
2017-08-13T17:02:23.726Z,22.00
2017-08-13T17:04:53.959Z,21.90
2017-08-13T17:07:22.319Z,21.90
2017-08-13T17:09:50.592Z,21.70
2017-08-13T17:12:18.893Z,21.50
2017-08-13T17:14:47.201Z,21.50
2017-08-13T17:17:16.551Z,21.50
2017-08-13T17:19:44.838Z,21.50
2017-08-13T17:22:13.072Z,21.40
2017-08-13T17:24:42.117Z,21.30
2017-08-13T17:27:10.450Z,21.30
2017-08-13T17:29:38.681Z,21.10
2017-08-13T17:32:06.933Z,21.00
2017-08-13T17:34:35.851Z,20.90
2017-08-13T17:37:04.149Z,20.60
2017-08-13T17:39:33.176Z,20.50
2017-08-13T17:42:02.229Z,20.30
2017-08-13T17:44:30.523Z,20.30
2017-08-13T17:47:00.433Z,20.00
2017-08-13T17:49:28.739Z,20.20
2017-08-13T17:51:57.782Z,20.20
2017-08-13T17:54:26.058Z,20.10
2017-08-13T17:56:54.392Z,20.10
2017-08-13T17:59:23.426Z,19.90
2017-08-13T18:01:51.702Z,19.90
2017-08-13T18:04:19.996Z,19.90
2017-08-13T18:06:48.297Z,19.80
2017-08-13T18:09:16.567Z,19.90
2017-08-13T18:11:45.747Z,19.80
2017-08-13T18:14:14.006Z,19.80
2017-08-13T18:16:42.243Z,19.80
2017-08-13T18:19:11.277Z,19.70
2017-08-13T18:21:40.359Z,19.60
2017-08-13T18:24:09.375Z,19.40
2017-08-13T18:26:37.643Z,19.40
2017-08-13T18:29:05.882Z,19.30
2017-08-13T18:31:34.925Z,19.20
2017-08-13T18:34:03.195Z,19.20
2017-08-13T18:36:32.759Z,19.00
2017-08-13T18:39:01.012Z,18.90
2017-08-13T18:41:30.065Z,18.90
2017-08-13T18:43:58.395Z,18.90
2017-08-13T18:46:26.957Z,18.90
2017-08-13T18:48:55.273Z,18.90
2017-08-13T18:51:24.403Z,18.80
2017-08-13T18:53:52.730Z,18.80
2017-08-13T18:56:21.082Z,18.80
2017-08-13T18:58:49.622Z,18.90
2017-08-13T19:01:19.063Z,18.80
2017-08-13T19:03:47.641Z,18.80
2017-08-13T19:06:17.584Z,18.70
2017-08-13T19:08:47.169Z,18.60
2017-08-13T19:11:16.246Z,18.60
2017-08-13T19:13:45.263Z,18.60
2017-08-13T19:16:16.258Z,18.60
2017-08-13T19:18:46.830Z,18.30
2017-08-13T19:21:15.735Z,18.30
2017-08-13T19:23:45.025Z,18.10
2017-08-13T19:26:13.811Z,17.90
2017-08-13T19:28:43.028Z,17.80
2017-08-13T19:31:11.799Z,17.80
2017-08-13T19:33:40.613Z,17.80
2017-08-13T19:36:10.462Z,17.80
2017-08-13T19:38:39.200Z,17.80
2017-08-13T19:41:07.983Z,17.80
2017-08-13T19:43:36.774Z,17.70
2017-08-13T19:46:05.565Z,17.60
2017-08-13T19:48:34.456Z,17.50
2017-08-13T19:51:03.269Z,17.50
2017-08-13T19:53:32.133Z,17.40
2017-08-13T19:56:01.024Z,17.30
2017-08-13T19:58:29.816Z,17.30
2017-08-13T20:00:58.611Z,17.10
2017-08-13T20:03:27.402Z,16.90
2017-08-13T20:05:56.698Z,16.90
2017-08-13T20:08:25.489Z,16.80
2017-08-13T20:10:54.990Z,16.60
2017-08-13T20:13:23.899Z,16.60
2017-08-13T20:15:53.084Z,16.50
2017-08-13T20:18:21.978Z,16.40
2017-08-13T20:20:50.357Z,16.40
2017-08-13T20:23:18.666Z,16.30
2017-08-13T20:25:46.986Z,16.20
2017-08-13T20:28:15.339Z,16.20
2017-08-13T20:30:43.661Z,16.20
2017-08-13T20:33:11.956Z,16.10
2017-08-13T20:35:40.239Z,16.20
2017-08-13T20:38:08.520Z,16.10
2017-08-13T20:40:36.847Z,16.10
2017-08-13T20:43:05.409Z,16.00
2017-08-13T20:45:34.569Z,15.70
2017-08-13T20:48:03.662Z,15.70
2017-08-13T20:50:32.092Z,15.70
2017-08-13T20:53:00.640Z,15.60
2017-08-13T20:55:28.954Z,15.50
2017-08-13T20:57:57.994Z,15.40
2017-08-13T21:00:26.282Z,15.40
2017-08-13T21:02:54.597Z,15.40
2017-08-13T21:05:23.691Z,15.40
2017-08-13T21:07:51.941Z,15.30
2017-08-13T21:10:20.849Z,15.30
2017-08-13T21:12:49.120Z,15.20
2017-08-13T21:15:18.359Z,15.10
2017-08-13T21:17:46.601Z,15.00
2017-08-13T21:20:15.015Z,15.00
2017-08-13T21:22:44.044Z,15.00
2017-08-13T21:25:12.383Z,15.00
2017-08-13T21:27:41.536Z,14.90
2017-08-13T21:30:09.818Z,14.90
2017-08-13T21:32:38.104Z,14.80
2017-08-13T21:35:07.354Z,14.70
2017-08-13T21:37:35.663Z,14.70
2017-08-13T21:40:04.026Z,14.80
2017-08-13T21:42:33.016Z,14.70
2017-08-13T21:45:01.267Z,14.70
2017-08-13T21:47:30.316Z,14.60
2017-08-13T21:49:58.574Z,14.50
2017-08-13T21:52:26.814Z,14.50
2017-08-13T21:54:55.847Z,14.60
2017-08-13T21:57:24.135Z,14.60
2017-08-13T21:59:52.370Z,14.70
2017-08-13T22:02:21.425Z,14.60
2017-08-13T22:04:49.733Z,14.60
2017-08-13T22:07:17.982Z,14.40
2017-08-13T22:09:46.237Z,14.30
2017-08-13T22:12:14.576Z,14.20
2017-08-13T22:14:43.578Z,14.20
2017-08-13T22:17:11.852Z,14.10
2017-08-13T22:19:41.136Z,14.00
2017-08-13T22:22:10.585Z,14.00
2017-08-13T22:24:39.077Z,14.00
2017-08-13T22:27:07.339Z,14.00
2017-08-13T22:29:35.729Z,14.00
2017-08-13T22:32:03.975Z,14.00
2017-08-13T22:34:33.026Z,14.20
2017-08-13T22:37:01.374Z,14.10
2017-08-13T22:39:29.617Z,14.10
2017-08-13T22:41:58.632Z,13.90
2017-08-13T22:44:26.925Z,13.90
2017-08-13T22:46:55.184Z,13.90
2017-08-13T22:49:24.217Z,14.00
2017-08-13T22:51:52.476Z,13.90
2017-08-13T22:54:20.952Z,13.90
2017-08-13T22:56:49.229Z,13.90
2017-08-13T22:59:17.485Z,13.90
2017-08-13T23:01:45.746Z,13.90
2017-08-13T23:04:14.051Z,13.80
2017-08-13T23:06:43.082Z,13.70
2017-08-13T23:09:11.334Z,13.70
2017-08-13T23:11:39.598Z,13.70
2017-08-13T23:14:07.910Z,13.70
2017-08-13T23:16:37.007Z,13.70
2017-08-13T23:19:05.251Z,13.60
2017-08-13T23:21:33.544Z,13.70
2017-08-13T23:24:01.927Z,13.60
2017-08-13T23:26:30.152Z,13.60
2017-08-13T23:28:59.171Z,13.70
2017-08-13T23:31:27.417Z,13.70
2017-08-13T23:33:56.470Z,13.50
2017-08-13T23:36:24.777Z,13.50
2017-08-13T23:38:53.005Z,13.50
2017-08-13T23:41:21.279Z,13.30
2017-08-13T23:43:49.646Z,13.20
2017-08-13T23:46:17.900Z,13.20
2017-08-13T23:48:46.163Z,13.20
2017-08-13T23:51:14.445Z,13.10
2017-08-13T23:53:42.745Z,13.10
2017-08-13T23:56:11.773Z,13.10
2017-08-13T23:58:40.376Z,13.10
